Time;durP1;ratioP1;P1;durP2;ratioP2;P2;SDS_P1;SDS_P2;PMS_P1;PMS_P2;Temp;Humidity;BMP_temperature;BMP_pressure;BME280_temperature;BME280_humidity;BME280_pressure;Samples;Min_cycle;Max_cycle;Signal;HPM_P1;HPM_P2
2021/06/29 00:00:31;;;;;;;2.15;0.70;;;23.80;78.20;;;;;;4413644;32;20429;-75
2021/06/29 00:03:01;;;;;;;0.65;0.55;;;23.70;78.40;;;;;;4414605;32;20066;-75
2021/06/29 00:05:28;;;;;;;0.15;0.15;;;23.70;79.20;;;;;;4414069;32;20073;-75
2021/06/29 00:07:54;;;;;;;0.40;0.40;;;23.60;78.80;;;;;;4413568;32;20077;-75
2021/06/29 00:10:21;;;;;;;0.85;0.82;;;23.60;79.20;;;;;;4413518;32;20065;-75
2021/06/29 00:12:46;;;;;;;0.45;0.45;;;23.60;79.50;;;;;;4415139;32;20504;-75
2021/06/29 00:15:12;;;;;;;0.65;0.65;;;23.60;79.60;;;;;;4414813;32;20073;-75
2021/06/29 00:17:38;;;;;;;0.45;0.45;;;23.60;79.70;;;;;;4414182;32;20065;-75
2021/06/29 00:20:04;;;;;;;0.40;0.40;;;23.50;79.90;;;;;;4415681;32;20082;-75
2021/06/29 00:22:29;;;;;;;0.40;0.40;;;23.40;80.40;;;;;;4413840;32;20058;-75
2021/06/29 00:24:55;;;;;;;0.30;0.30;;;23.50;80.20;;;;;;4414435;32;20062;-75
2021/06/29 00:27:20;;;;;;;0.45;0.45;;;23.50;80.00;;;;;;4413902;32;20117;-75
2021/06/29 00:29:46;;;;;;;0.82;0.70;;;23.60;80.30;;;;;;4413474;32;20062;-75
2021/06/29 00:32:11;;;;;;;1.17;0.55;;;23.60;80.80;;;;;;4414095;32;20077;-75
2021/06/29 00:34:37;;;;;;;0.47;0.47;;;23.50;83.20;;;;;;4414647;32;20066;-75
2021/06/29 00:37:02;;;;;;;0.37;0.37;;;23.30;83.10;;;;;;4415482;32;20191;-75
2021/06/29 00:39:28;;;;;;;0.77;0.60;;;23.20;83.70;;;;;;4416911;32;20511;-75
2021/06/29 00:41:53;;;;;;;0.40;0.40;;;23.20;84.20;;;;;;4416177;32;20057;-75
2021/06/29 00:44:21;;;;;;;0.88;0.62;;;23.10;84.40;;;;;;4416559;32;20081;-75
2021/06/29 00:46:47;;;;;;;0.60;0.60;;;23.00;84.50;;;;;;4416951;32;20120;-75
2021/06/29 00:49:13;;;;;;;0.52;0.52;;;22.90;84.40;;;;;;4416743;32;20082;-75
2021/06/29 00:51:39;;;;;;;0.40;0.40;;;22.90;85.00;;;;;;4416016;32;20062;-75
2021/06/29 00:54:04;;;;;;;0.50;0.50;;;22.90;85.30;;;;;;4416768;32;20069;-75
2021/06/29 00:56:30;;;;;;;0.60;0.60;;;22.90;85.40;;;;;;4415317;32;20535;-75
2021/06/29 00:58:56;;;;;;;1.37;0.70;;;22.80;85.90;;;;;;4416469;32;20195;-75
2021/06/29 01:01:21;;;;;;;0.73;0.62;;;22.70;85.80;;;;;;4416952;32;20121;-75
2021/06/29 01:03:47;;;;;;;0.52;0.52;;;22.80;86.50;;;;;;4416313;32;20138;-75
2021/06/29 01:06:14;;;;;;;0.55;0.55;;;22.90;85.90;;;;;;4417711;32;20062;-75
2021/06/29 01:08:40;;;;;;;1.12;0.75;;;22.90;86.10;;;;;;4415956;32;20057;-75
2021/06/29 01:11:06;;;;;;;0.32;0.32;;;22.90;86.50;;;;;;4415368;32;20061;-76
2021/06/29 01:13:35;;;;;;;0.40;0.40;;;22.80;87.60;;;;;;4415927;32;20061;-77
2021/06/29 01:16:02;;;;;;;0.73;0.73;;;22.80;87.80;;;;;;4416762;32;20522;-76
2021/06/29 01:18:28;;;;;;;0.30;0.30;;;22.60;88.60;;;;;;4417210;32;20061;-76
2021/06/29 01:20:54;;;;;;;0.40;0.40;;;22.60;87.50;;;;;;4416892;32;20070;-76
2021/06/29 01:23:23;;;;;;;0.95;0.57;;;22.50;88.70;;;;;;4415663;32;20082;-76
2021/06/29 01:26:18;;;;;;;0.30;0.30;;;22.50;88.90;;;;;;4415442;32;20053;-76
2021/06/29 01:28:53;;;;;;;0.60;0.60;;;22.60;88.40;;;;;;4405836;32;20077;-76
2021/06/29 01:31:20;;;;;;;0.30;0.30;;;22.40;89.10;;;;;;4416586;32;20058;-76
2021/06/29 01:33:46;;;;;;;0.28;0.28;;;22.30;90.00;;;;;;4431505;32;20069;-77
2021/06/29 01:36:16;;;;;;;1.12;0.50;;;22.30;90.20;;;;;;4431423;32;20056;-76
2021/06/29 01:38:42;;;;;;;0.47;0.47;;;22.30;90.40;;;;;;4430620;32;20128;-76
2021/06/29 01:41:10;;;;;;;3.30;0.73;;;22.20;90.50;;;;;;4431107;32;20487;-77
2021/06/29 01:43:43;;;;;;;2.00;0.80;;;22.10;90.80;;;;;;4430893;32;20091;-76
2021/06/29 01:46:09;;;;;;;0.60;0.60;;;22.10;91.00;;;;;;4430896;32;20113;-76
2021/06/29 01:48:34;;;;;;;0.47;0.47;;;22.20;91.00;;;;;;4431187;32;20069;-76
2021/06/29 01:51:00;;;;;;;13.30;0.88;;;22.30;90.50;;;;;;4431245;32;20057;-76
2021/06/29 01:53:26;;;;;;;0.50;0.50;;;22.30;90.10;;;;;;4432036;32;20120;-76
2021/06/29 01:55:51;;;;;;;0.75;0.45;;;22.40;90.70;;;;;;4430561;32;20057;-75
2021/06/29 01:58:25;;;;;;;2.05;0.88;;;22.40;91.10;;;;;;4431144;32;20517;-75
2021/06/29 02:00:51;;;;;;;2.87;0.62;;;22.50;90.90;;;;;;4430646;32;20069;-75
2021/06/29 02:03:16;;;;;;;0.30;0.30;;;22.50;91.10;;;;;;4431123;32;20526;-75
2021/06/29 02:05:42;;;;;;;0.52;0.50;;;22.50;88.90;;;;;;4430731;32;20069;-76
2021/06/29 02:08:07;;;;;;;0.50;0.50;;;22.60;88.60;;;;;;4430763;32;20419;-76
2021/06/29 02:10:33;;;;;;;0.82;0.57;;;22.50;88.90;;;;;;4431523;32;20065;-76
2021/06/29 02:12:59;;;;;;;1.12;0.80;;;22.50;89.50;;;;;;4430897;32;20467;-77
2021/06/29 02:15:25;;;;;;;3.30;0.93;;;22.60;89.20;;;;;;4431070;32;20116;-76
2021/06/29 02:17:51;;;;;;;0.50;0.50;;;22.70;88.90;;;;;;4432092;32;20066;-76
2021/06/29 02:20:17;;;;;;;1.30;0.95;;;22.70;88.80;;;;;;4430859;32;20053;-77
2021/06/29 02:22:45;;;;;;;0.30;0.30;;;22.70;90.20;;;;;;4430928;32;20061;-76
2021/06/29 02:25:11;;;;;;;0.57;0.37;;;22.60;90.40;;;;;;4430783;32;20112;-76
2021/06/29 02:27:36;;;;;;;0.60;0.60;;;22.50;90.00;;;;;;4430808;32;20069;-76
2021/06/29 02:30:03;;;;;;;0.47;0.47;;;22.50;89.60;;;;;;4430084;32;20436;-75
2021/06/29 02:32:29;;;;;;;0.40;0.40;;;22.50;89.50;;;;;;4423529;32;20086;-78
2021/06/29 02:34:54;;;;;;;0.82;0.50;;;22.50;90.00;;;;;;4415503;32;20062;-76
2021/06/29 02:37:21;;;;;;;0.28;0.28;;;22.50;90.30;;;;;;4415193;32;20119;-76
2021/06/29 02:39:46;;;;;;;1.85;0.88;;;22.50;89.70;;;;;;4415138;32;20057;-76
2021/06/29 02:42:12;;;;;;;0.90;0.73;;;22.50;90.00;;;;;;4414933;32;20394;-76
2021/06/29 02:44:37;;;;;;;0.40;0.40;;;22.50;90.10;;;;;;4415088;32;20058;-76
2021/06/29 02:47:03;;;;;;;1.95;0.82;;;22.40;90.30;;;;;;4415580;32;20177;-76
2021/06/29 02:49:29;;;;;;;0.40;0.40;;;22.40;90.70;;;;;;4415309;32;20352;-76
2021/06/29 02:51:55;;;;;;;0.50;0.50;;;22.30;90.80;;;;;;4414843;32;20113;-76
2021/06/29 02:54:21;;;;;;;1.08;0.93;;;22.30;90.90;;;;;;4415201;32;20117;-76
2021/06/29 02:56:47;;;;;;;4.22;0.95;;;22.30;91.00;;;;;;4414586;32;20425;-77
2021/06/29 02:59:15;;;;;;;0.40;0.28;;;22.30;91.10;;;;;;4414352;32;20107;-76
2021/06/29 03:01:42;;;;;;;0.85;0.62;;;22.20;91.30;;;;;;4415942;32;20422;-76
2021/06/29 03:04:08;;;;;;;1.15;0.73;;;22.20;91.20;;;;;;4416295;32;20077;-76
2021/06/29 03:06:34;;;;;;;1.05;0.80;;;22.30;91.20;;;;;;4414629;32;20128;-77
2021/06/29 03:09:00;;;;;;;2.58;0.90;;;22.30;91.20;;;;;;4414743;32;20507;-76
2021/06/29 03:11:27;;;;;;;0.75;0.60;;;22.20;91.30;;;;;;4414836;32;20070;-76
2021/06/29 03:13:53;;;;;;;1.08;0.98;;;22.20;91.70;;;;;;4415262;32;20114;-76
2021/06/29 03:16:18;;;;;;;0.40;0.40;;;22.10;91.80;;;;;;4414213;32;20514;-75
2021/06/29 03:18:44;;;;;;;0.55;0.55;;;22.10;91.90;;;;;;4414837;32;20069;-76
2021/06/29 03:21:10;;;;;;;0.52;0.52;;;22.20;92.10;;;;;;4415306;32;20116;-76
2021/06/29 03:23:37;;;;;;;1.15;0.80;;;22.10;92.20;;;;;;4414330;32;20129;-76
2021/06/29 03:26:03;;;;;;;2.33;1.35;;;22.20;92.30;;;;;;4414048;32;20073;-76
2021/06/29 03:28:29;;;;;;;0.77;0.60;;;22.30;92.40;;;;;;4416135;32;20074;-76
2021/06/29 03:30:54;;;;;;;0.50;0.50;;;22.30;92.30;;;;;;4414483;32;20066;-77
2021/06/29 03:33:20;;;;;;;0.47;0.47;;;22.40;92.20;;;;;;4427582;32;20074;-76
2021/06/29 03:35:45;;;;;;;1.42;0.52;;;22.50;92.10;;;;;;4430426;32;20081;-77
2021/06/29 03:38:11;;;;;;;0.68;0.60;;;22.50;92.40;;;;;;4429632;32;20077;-77
2021/06/29 03:40:37;;;;;;;0.52;0.52;;;22.40;92.20;;;;;;4429627;32;20073;-76
2021/06/29 03:43:02;;;;;;;0.60;0.47;;;22.40;92.50;;;;;;4430371;32;20109;-76
2021/06/29 03:45:28;;;;;;;0.35;0.35;;;22.40;92.60;;;;;;4429684;32;20526;-76
2021/06/29 03:47:53;;;;;;;0.50;0.50;;;22.40;92.70;;;;;;4429858;32;20070;-76
2021/06/29 03:50:19;;;;;;;0.57;0.43;;;22.40;92.50;;;;;;4429732;32;20085;-76
2021/06/29 03:52:44;;;;;;;0.52;0.52;;;22.50;92.80;;;;;;4429587;32;20390;-76
2021/06/29 03:55:10;;;;;;;1.10;1.00;;;22.40;93.20;;;;;;4428911;32;20061;-76
2021/06/29 03:57:36;;;;;;;0.50;0.50;;;22.40;93.20;;;;;;4429814;32;20494;-76
2021/06/29 04:00:04;;;;;;;1.17;0.62;;;22.40;93.20;;;;;;4429263;32;20081;-76
2021/06/29 04:02:30;;;;;;;1.37;0.80;;;22.50;93.30;;;;;;4430288;32;20061;-76
2021/06/29 04:04:55;;;;;;;1.08;0.80;;;22.50;93.30;;;;;;4429517;32;20154;-76
2021/06/29 04:07:21;;;;;;;0.40;0.40;;;22.50;93.70;;;;;;4429675;32;20434;-77
2021/06/29 04:09:46;;;;;;;0.68;0.68;;;22.50;94.20;;;;;;4429621;32;20502;-76
2021/06/29 04:12:13;;;;;;;0.65;0.65;;;22.40;93.80;;;;;;4430044;32;20124;-76
2021/06/29 04:14:39;;;;;;;0.70;0.60;;;22.50;93.90;;;;;;4429922;32;20120;-76
2021/06/29 04:17:05;;;;;;;0.40;0.40;;;22.40;94.10;;;;;;4429289;32;20715;-76
2021/06/29 04:19:30;;;;;;;0.43;0.43;;;22.40;94.30;;;;;;4429604;32;20066;-76
2021/06/29 04:21:56;;;;;;;0.77;0.57;;;22.40;94.20;;;;;;4429324;32;20057;-76
2021/06/29 04:24:21;;;;;;;1.23;0.68;;;22.50;94.20;;;;;;4429675;32;20086;-75
2021/06/29 04:26:47;;;;;;;0.40;0.40;;;22.50;94.30;;;;;;4428167;32;20116;-75
2021/06/29 04:29:12;;;;;;;0.93;0.80;;;22.60;94.00;;;;;;4428995;32;20081;-76
2021/06/29 04:31:38;;;;;;;2.37;0.80;;;22.60;94.00;;;;;;4427161;32;20093;-77
2021/06/29 04:34:03;;;;;;;0.30;0.30;;;22.60;94.80;;;;;;4414030;32;20074;-76
2021/06/29 04:36:29;;;;;;;1.05;0.57;;;22.50;94.50;;;;;;4414608;32;20069;-76
2021/06/29 04:38:54;;;;;;;0.50;0.50;;;22.50;94.30;;;;;;4413868;32;20516;-76
2021/06/29 04:41:20;;;;;;;0.30;0.30;;;22.40;94.60;;;;;;4413881;32;20432;-76
2021/06/29 04:43:46;;;;;;;1.00;0.52;;;22.40;94.80;;;;;;4415172;32;20523;-77
2021/06/29 04:46:12;;;;;;;0.50;0.50;;;22.40;95.00;;;;;;4414166;32;20459;-76
2021/06/29 04:48:39;;;;;;;1.42;0.90;;;22.40;95.30;;;;;;4414959;32;20069;-76
2021/06/29 04:51:06;;;;;;;0.57;0.57;;;22.30;95.50;;;;;;4414271;32;20063;-76
2021/06/29 04:53:32;;;;;;;2.53;1.45;;;22.30;95.70;;;;;;4417050;32;20078;-76
2021/06/29 04:55:58;;;;;;;0.52;0.52;;;22.40;95.40;;;;;;4414613;32;20069;-76
2021/06/29 04:58:24;;;;;;;0.60;0.60;;;22.40;95.40;;;;;;4419061;32;20082;-76
2021/06/29 05:00:50;;;;;;;0.50;0.50;;;22.40;95.70;;;;;;4422203;32;20092;-76
2021/06/29 05:03:17;;;;;;;0.57;0.50;;;22.50;95.30;;;;;;4422736;32;20070;-76
2021/06/29 05:05:43;;;;;;;0.30;0.30;;;22.50;95.70;;;;;;4419592;32;20073;-75
2021/06/29 05:08:11;;;;;;;0.60;0.60;;;22.60;96.00;;;;;;4413392;32;20441;-76
2021/06/29 05:10:37;;;;;;;0.98;0.52;;;22.80;95.20;;;;;;4418133;32;20058;-76
2021/06/29 05:13:03;;;;;;;0.62;0.60;;;22.80;95.10;;;;;;4424596;32;20057;-77
2021/06/29 05:15:29;;;;;;;0.85;0.62;;;22.80;95.20;;;;;;4428239;32;20061;-76
2021/06/29 05:17:54;;;;;;;0.80;0.80;;;22.80;95.50;;;;;;4425403;32;20083;-76
2021/06/29 05:20:20;;;;;;;0.40;0.40;;;22.80;95.50;;;;;;4413553;32;20074;-77
2021/06/29 05:22:45;;;;;;;0.30;0.30;;;22.70;95.40;;;;;;4415496;32;20384;-76
2021/06/29 05:25:11;;;;;;;0.55;0.55;;;22.80;95.70;;;;;;4416314;32;20463;-76
2021/06/29 05:27:38;;;;;;;0.55;0.55;;;22.80;95.80;;;;;;4414789;32;20079;-76
2021/06/29 05:30:05;;;;;;;0.40;0.40;;;22.90;95.90;;;;;;4415901;32;20062;-76
2021/06/29 05:32:31;;;;;;;3.05;0.50;;;22.90;95.50;;;;;;4416596;32;20125;-76
2021/06/29 05:34:56;;;;;;;0.35;0.35;;;23.00;95.80;;;;;;4416345;32;20078;-76
2021/06/29 05:37:22;;;;;;;0.98;0.60;;;23.10;95.70;;;;;;4416131;32;20125;-76
2021/06/29 05:39:47;;;;;;;0.45;0.32;;;23.20;95.50;;;;;;4415640;32;20062;-75
2021/06/29 05:42:13;;;;;;;3.47;0.82;;;23.20;95.60;;;;;;4415601;32;20065;-76
2021/06/29 05:44:39;;;;;;;0.47;0.47;;;23.20;95.80;;;;;;4415485;32;20065;-76
2021/06/29 05:47:08;;;;;;;0.50;0.50;;;23.30;95.60;;;;;;4420675;32;20054;-76
2021/06/29 05:49:33;;;;;;;0.65;0.65;;;23.30;95.90;;;;;;4432633;32;20068;-76
2021/06/29 05:51:59;;;;;;;1.33;0.90;;;23.40;96.00;;;;;;4430988;32;20081;-77
2021/06/29 05:54:25;;;;;;;0.98;0.62;;;23.50;96.00;;;;;;4414089;32;20086;-76
2021/06/29 05:56:50;;;;;;;1.37;0.88;;;23.60;96.00;;;;;;4415565;32;20094;-77
2021/06/29 05:59:16;;;;;;;0.93;0.62;;;23.70;95.70;;;;;;4430691;32;20085;-76
2021/06/29 06:01:41;;;;;;;1.15;0.70;;;23.80;95.70;;;;;;4432030;32;20061;-77
2021/06/29 06:04:07;;;;;;;0.80;0.80;;;23.80;95.80;;;;;;4431275;32;20061;-76
2021/06/29 06:06:32;;;;;;;3.17;0.60;;;23.90;95.80;;;;;;4429490;32;20159;-76
2021/06/29 06:08:59;;;;;;;5.93;1.42;;;23.90;95.90;;;;;;4431598;32;20075;-76
2021/06/29 06:11:24;;;;;;;2.65;0.90;;;24.00;95.90;;;;;;4430445;32;20116;-76
2021/06/29 06:13:50;;;;;;;0.28;0.28;;;24.10;96.00;;;;;;4430983;32;20062;-76
2021/06/29 06:16:15;;;;;;;2.40;0.93;;;24.10;96.30;;;;;;4431457;32;20108;-76
2021/06/29 06:18:43;;;;;;;1.08;0.60;;;24.20;96.20;;;;;;4431367;32;20077;-75
2021/06/29 06:21:09;;;;;;;0.47;0.47;;;24.40;96.20;;;;;;4430653;32;20065;-76
2021/06/29 06:23:35;;;;;;;0.40;0.40;;;24.50;96.20;;;;;;4430187;32;20077;-75
2021/06/29 06:26:00;;;;;;;0.70;0.70;;;24.50;95.90;;;;;;4430456;32;20069;-75
2021/06/29 06:28:26;;;;;;;0.60;0.60;;;24.60;96.10;;;;;;4430719;32;20073;-76
2021/06/29 06:30:51;;;;;;;0.45;0.37;;;24.60;96.10;;;;;;4430648;32;20075;-75
2021/06/29 06:33:19;;;;;;;1.80;1.02;;;24.50;96.50;;;;;;4417706;32;20404;-75
2021/06/29 06:35:44;;;;;;;0.60;0.60;;;24.50;96.40;;;;;;4415007;32;20088;-75
2021/06/29 06:38:10;;;;;;;1.90;1.08;;;24.60;96.40;;;;;;4414596;32;20078;-76
2021/06/29 06:40:35;;;;;;;1.25;0.85;;;24.70;96.40;;;;;;4414497;32;20065;-76
2021/06/29 06:43:01;;;;;;;0.90;0.55;;;24.80;96.00;;;;;;4414575;32;20057;-76
2021/06/29 06:45:26;;;;;;;0.88;0.60;;;24.90;96.10;;;;;;4414620;32;20057;-75
2021/06/29 06:47:53;;;;;;;0.98;0.43;;;24.90;96.00;;;;;;4414845;32;20121;-74
2021/06/29 06:50:18;;;;;;;0.50;0.50;;;24.90;96.10;;;;;;4415473;32;20057;-74
2021/06/29 06:52:44;;;;;;;4.47;1.02;;;25.00;95.90;;;;;;4414562;32;20070;-74
2021/06/29 06:55:10;;;;;;;0.57;0.52;;;25.00;96.10;;;;;;4414341;32;20388;-75
2021/06/29 06:57:36;;;;;;;1.62;0.62;;;25.10;95.90;;;;;;4419858;32;20078;-75
2021/06/29 07:00:03;;;;;;;1.05;0.70;;;25.30;96.20;;;;;;4429701;32;20525;-75
2021/06/29 07:02:28;;;;;;;0.43;0.43;;;25.40;95.40;;;;;;4430649;32;20057;-75
2021/06/29 07:04:53;;;;;;;0.60;0.60;;;25.50;95.40;;;;;;4430702;32;20062;-75
2021/06/29 07:07:19;;;;;;;0.68;0.68;;;25.50;95.40;;;;;;4428609;32;20397;-76
2021/06/29 07:09:44;;;;;;;1.00;0.68;;;25.50;95.30;;;;;;4430014;32;20077;-75
2021/06/29 07:12:10;;;;;;;1.42;0.88;;;25.60;95.30;;;;;;4429911;32;20569;-75
2021/06/29 07:14:36;;;;;;;0.65;0.60;;;25.70;95.20;;;;;;4430203;32;20115;-76
2021/06/29 07:17:01;;;;;;;0.65;0.65;;;25.80;95.40;;;;;;4430106;32;20066;-75
2021/06/29 07:19:27;;;;;;;2.50;1.30;;;25.90;95.30;;;;;;4430422;32;20068;-74
2021/06/29 07:21:52;;;;;;;2.70;0.68;;;26.10;94.90;;;;;;4430265;32;20065;-74
2021/06/29 07:24:17;;;;;;;0.55;0.55;;;26.30;94.70;;;;;;4430310;32;20099;-75
2021/06/29 07:26:43;;;;;;;2.87;1.05;;;26.50;94.70;;;;;;4429482;32;20113;-75
2021/06/29 07:29:09;;;;;;;0.43;0.43;;;26.60;94.40;;;;;;4428976;32;20099;-75
2021/06/29 07:31:35;;;;;;;0.60;0.60;;;26.70;94.10;;;;;;4429741;32;20108;-76
2021/06/29 07:34:01;;;;;;;1.20;0.60;;;26.60;94.20;;;;;;4414304;32;20090;-75
2021/06/29 07:36:26;;;;;;;2.97;0.65;;;26.60;94.20;;;;;;4414364;32;20058;-75
2021/06/29 07:38:54;;;;;;;1.83;0.75;;;26.60;94.60;;;;;;4413702;32;20456;-75
2021/06/29 07:41:20;;;;;;;0.40;0.40;;;26.70;94.40;;;;;;4413819;32;20112;-76
2021/06/29 07:43:46;;;;;;;1.12;0.60;;;26.80;94.00;;;;;;4413684;32;20119;-75
2021/06/29 07:46:11;;;;;;;1.12;1.02;;;26.90;93.50;;;;;;4415115;32;20073;-75
2021/06/29 07:48:37;;;;;;;2.17;0.95;;;27.10;93.50;;;;;;4414630;32;20147;-75
2021/06/29 07:51:06;;;;;;;0.95;0.62;;;27.20;93.10;;;;;;4415361;32;20069;-75
2021/06/29 07:53:31;;;;;;;0.50;0.50;;;27.30;93.00;;;;;;4414025;32;20491;-76
2021/06/29 07:55:57;;;;;;;0.77;0.70;;;27.30;92.40;;;;;;4413388;32;20077;-76
2021/06/29 07:58:23;;;;;;;0.57;0.57;;;27.30;92.90;;;;;;4424149;32;20073;-75
2021/06/29 08:00:50;;;;;;;0.40;0.40;;;27.50;93.00;;;;;;4428977;32;20108;-75
2021/06/29 08:03:16;;;;;;;1.20;0.70;;;27.60;92.40;;;;;;4429767;32;20132;-75
2021/06/29 08:05:41;;;;;;;1.17;0.57;;;27.60;92.30;;;;;;4429685;32;20511;-75
2021/06/29 08:08:07;;;;;;;0.95;0.77;;;27.60;92.80;;;;;;4427761;32;20061;-76
2021/06/29 08:10:34;;;;;;;0.35;0.32;;;27.80;92.50;;;;;;4428548;32;20429;-76
2021/06/29 08:13:00;;;;;;;0.50;0.50;;;28.00;91.80;;;;;;4429677;32;20066;-76
2021/06/29 08:15:27;;;;;;;0.30;0.30;;;28.10;90.50;;;;;;4429647;32;20474;-76
2021/06/29 08:17:53;;;;;;;0.82;0.52;;;28.10;90.70;;;;;;4429385;32;20072;-76
2021/06/29 08:20:20;;;;;;;0.60;0.50;;;28.40;90.90;;;;;;4429863;32;20068;-76
2021/06/29 08:22:47;;;;;;;0.43;0.43;;;28.30;91.00;;;;;;4431232;32;20413;-76
2021/06/29 08:25:13;;;;;;;9.43;0.77;;;28.10;91.50;;;;;;4428737;32;20065;-76
2021/06/29 08:27:39;;;;;;;0.25;0.25;;;28.10;91.10;;;;;;4430716;32;20169;-75
2021/06/29 08:30:07;;;;;;;2.55;0.45;;;28.00;90.50;;;;;;4428660;32;20054;-77
2021/06/29 08:32:33;;;;;;;0.90;0.57;;;27.90;90.90;;;;;;4422066;32;20507;-76
2021/06/29 08:34:59;;;;;;;2.90;1.08;;;27.80;91.30;;;;;;4414280;32;20062;-76
2021/06/29 08:37:24;;;;;;;0.40;0.40;;;27.80;91.00;;;;;;4413264;32;20117;-76
2021/06/29 08:39:50;;;;;;;1.12;0.60;;;27.90;90.90;;;;;;4413755;32;20065;-76
2021/06/29 08:42:23;;;;;;;1.55;0.80;;;28.10;90.70;;;;;;4414044;32;20074;-76
2021/06/29 08:44:48;;;;;;;0.10;0.10;;;28.30;90.80;;;;;;4413422;32;20512;-76
2021/06/29 08:47:14;;;;;;;15.40;0.80;;;28.50;90.40;;;;;;4413500;32;20086;-76
2021/06/29 08:49:40;;;;;;;0.30;0.30;;;28.50;89.90;;;;;;4413771;32;20142;-76
2021/06/29 08:52:07;;;;;;;0.90;0.55;;;28.50;89.00;;;;;;4413581;32;20507;-76
2021/06/29 08:54:33;;;;;;;0.62;0.50;;;28.60;89.00;;;;;;4413778;32;20062;-76
2021/06/29 08:56:59;;;;;;;0.10;0.10;;;28.50;89.60;;;;;;4417767;32;20121;-76
2021/06/29 08:59:25;;;;;;;0.32;0.32;;;28.60;89.90;;;;;;4431466;32;20088;-76
2021/06/29 09:01:51;;;;;;;0.47;0.32;;;28.60;89.90;;;;;;4431572;32;20116;-76
2021/06/29 09:04:44;;;;;;;0.60;0.60;;;28.50;89.10;;;;;;4432126;32;20108;-76
2021/06/29 09:07:22;;;;;;;0.40;0.32;;;28.60;89.70;;;;;;4419766;32;20073;-76
2021/06/29 09:09:55;;;;;;;2.05;0.52;;;28.80;90.30;;;;;;4431824;32;20503;-76
2021/06/29 09:12:43;;;;;;;0.50;0.50;;;29.10;87.20;;;;;;4431439;32;20061;-76
2021/06/29 09:15:35;;;;;;;0.30;0.30;;;29.20;86.00;;;;;;4421724;32;20077;-76
2021/06/29 09:18:19;;;;;;;0.90;0.45;;;29.10;84.10;;;;;;4431613;32;20077;-76
2021/06/29 09:20:55;;;;;;;0.37;0.37;;;29.00;84.00;;;;;;4433215;32;20116;-76
2021/06/29 09:23:25;;;;;;;1.17;0.62;;;28.90;83.70;;;;;;4432126;32;20117;-76
2021/06/29 09:25:54;;;;;;;;;;;28.80;84.10;;;;;;4431577;32;20389;-76
2021/06/29 09:28:23;;;;;;;0.10;0.10;;;28.70;81.80;;;;;;4431732;32;20283;-76
2021/06/29 09:30:53;;;;;;;0.47;0.47;;;28.60;81.20;;;;;;4431916;32;20053;-76
2021/06/29 09:33:26;;;;;;;0.20;0.20;;;28.60;83.20;;;;;;4418872;32;20062;-76
2021/06/29 09:35:54;;;;;;;0.20;0.20;;;28.60;83.10;;;;;;4416245;32;20050;-76
2021/06/29 09:38:22;;;;;;;0.25;0.25;;;28.60;82.60;;;;;;4416134;32;20058;-76
2021/06/29 09:40:54;;;;;;;0.30;0.20;;;28.50;82.40;;;;;;4413388;32;79962;-76
2021/06/29 09:43:19;;;;;;;0.30;0.30;;;28.40;83.30;;;;;;4416386;32;20062;-76
2021/06/29 09:45:47;;;;;;;0.45;0.35;;;28.40;83.10;;;;;;4415630;32;20058;-77
2021/06/29 09:48:16;;;;;;;0.43;0.43;;;28.30;84.30;;;;;;4415978;32;20083;-76
2021/06/29 09:50:52;;;;;;;0.30;0.30;;;28.20;84.80;;;;;;4416310;32;20079;-76
2021/06/29 09:53:30;;;;;;;0.40;0.40;;;28.20;85.30;;;;;;4415831;32;20401;-76
2021/06/29 09:55:58;;;;;;;0.52;0.52;;;28.20;86.50;;;;;;4415181;32;20134;-76
2021/06/29 09:58:25;;;;;;;0.75;0.60;;;28.10;87.20;;;;;;4427699;32;20503;-76
2021/06/29 10:00:54;;;;;;;1.70;0.32;;;28.20;86.60;;;;;;4430735;32;20090;-76
2021/06/29 10:03:27;;;;;;;0.30;0.30;;;28.30;87.00;;;;;;4431134;32;20066;-76
2021/06/29 10:05:55;;;;;;;2.12;0.40;;;28.40;87.30;;;;;;4430647;32;20071;-76
2021/06/29 10:08:23;;;;;;;9.02;1.30;;;28.50;87.80;;;;;;4415682;32;20145;-75
2021/06/29 10:10:48;;;;;;;0.20;0.20;;;28.60;86.60;;;;;;4422946;32;20120;-75
2021/06/29 10:13:16;;;;;;;0.70;0.55;;;28.70;87.20;;;;;;4415340;32;20057;-76
2021/06/29 10:15:41;;;;;;;1.05;0.55;;;28.80;87.00;;;;;;4415749;32;20511;-76
2021/06/29 10:18:09;;;;;;;0.40;0.40;;;28.80;86.20;;;;;;4415971;32;20121;-76
2021/06/29 10:21:16;;;;;;;0.30;0.30;;;28.80;87.00;;;;;;4416069;32;20456;-77
2021/06/29 10:23:20;;;;;;;0.55;0.50;;;28.80;86.80;;;;;;4403585;32;20086;-77
2021/06/29 10:25:47;;;;;;;0.25;0.25;;;28.90;86.50;;;;;;4415198;32;20065;-76
2021/06/29 10:28:14;;;;;;;0.90;0.50;;;29.00;84.40;;;;;;4415575;32;20067;-77
2021/06/29 10:30:41;;;;;;;1.67;0.65;;;29.00;83.80;;;;;;4414898;32;20073;-76
2021/06/29 10:33:07;;;;;;;0.30;0.30;;;29.00;83.80;;;;;;4426737;32;20123;-76
2021/06/29 10:35:34;;;;;;;0.30;0.30;;;28.80;85.00;;;;;;4430398;32;20077;-76
2021/06/29 10:38:00;;;;;;;0.30;0.30;;;28.90;85.20;;;;;;4431204;32;20061;-76
2021/06/29 10:40:26;;;;;;;0.30;0.30;;;29.00;84.20;;;;;;4430966;32;20061;-76
2021/06/29 10:42:56;;;;;;;7.72;0.45;;;29.00;84.70;;;;;;4431586;32;20061;-78
2021/06/29 10:45:22;;;;;;;0.43;0.30;;;29.10;84.60;;;;;;4430910;32;20506;-76
2021/06/29 10:47:47;;;;;;;0.52;0.50;;;28.90;85.20;;;;;;4420910;32;20074;-76
2021/06/29 10:50:15;;;;;;;1.10;0.40;;;28.80;88.10;;;;;;4416064;32;20108;-76
2021/06/29 10:52:42;;;;;;;1.00;0.60;;;28.70;90.40;;;;;;4415868;32;20066;-75
2021/06/29 10:55:28;;;;;;;1.87;0.62;;;28.70;90.60;;;;;;4422962;32;20065;-76
2021/06/29 10:57:56;;;;;;;0.80;0.70;;;28.60;91.00;;;;;;4423264;32;20058;-76
2021/06/29 11:00:26;;;;;;;0.85;0.68;;;28.60;91.30;;;;;;4415249;32;20062;-76
2021/06/29 11:03:10;;;;;;;0.45;0.45;;;28.60;91.20;;;;;;4415095;32;20218;-76
2021/06/29 11:05:39;;;;;;;0.90;0.82;;;28.50;91.70;;;;;;4416915;32;20070;-77
2021/06/29 11:08:27;;;;;;;1.50;0.45;;;28.40;91.80;;;;;;4414256;32;20123;-76
2021/06/29 11:10:53;;;;;;;0.57;0.57;;;28.50;92.20;;;;;;4414381;32;20077;-76
2021/06/29 11:13:46;;;;;;;0.22;0.22;;;28.50;92.10;;;;;;4415375;32;20090;-76
2021/06/29 11:16:14;;;;;;;0.80;0.73;;;28.60;92.30;;;;;;4415546;32;20104;-76
2021/06/29 11:18:44;;;;;;;0.30;0.30;;;28.50;92.50;;;;;;4415614;32;20062;-76
2021/06/29 11:21:34;;;;;;;0.20;0.20;;;28.60;92.10;;;;;;4414902;32;20065;-76
2021/06/29 11:23:59;;;;;;;1.15;0.77;;;28.70;92.20;;;;;;4404041;32;20116;-76
2021/06/29 11:26:27;;;;;;;0.32;0.32;;;28.80;91.00;;;;;;4414983;32;20491;-76
2021/06/29 11:29:04;;;;;;;0.20;0.20;;;28.80;91.40;;;;;;4414152;32;20066;-76
2021/06/29 11:31:30;;;;;;;0.50;0.47;;;28.60;91.60;;;;;;4414714;32;20124;-75
2021/06/29 11:34:04;;;;;;;0.47;0.47;;;28.70;91.60;;;;;;4414023;32;20067;-75
2021/06/29 11:36:32;;;;;;;0.65;0.60;;;28.60;91.90;;;;;;4414166;32;20069;-76
2021/06/29 11:39:01;;;;;;;3.85;1.37;;;28.80;91.90;;;;;;4414927;32;20478;-76
2021/06/29 11:41:31;;;;;;;0.47;0.47;;;28.90;91.30;;;;;;4414000;32;20050;-75
2021/06/29 11:44:03;;;;;;;1.35;0.98;;;28.90;91.10;;;;;;4415455;32;20062;-76
2021/06/29 11:46:53;;;;;;;0.28;0.22;;;29.10;90.90;;;;;;4415559;32;20073;-77
2021/06/29 11:49:31;;;;;;;0.45;0.40;;;29.20;90.80;;;;;;4419437;32;20061;-77
2021/06/29 11:52:00;;;;;;;0.45;0.45;;;29.20;90.80;;;;;;4415288;32;20511;-76
2021/06/29 11:54:32;;;;;;;0.90;0.68;;;29.30;90.60;;;;;;4425848;32;20062;-76
2021/06/29 11:57:22;;;;;;;0.50;0.50;;;29.40;90.40;;;;;;4415268;32;20066;-76
2021/06/29 11:59:49;;;;;;;1.17;0.87;;;29.20;90.90;;;;;;4417597;32;20563;-77
2021/06/29 12:02:20;;;;;;;0.37;0.37;;;29.20;90.60;;;;;;4430419;32;20086;-76
2021/06/29 12:05:05;;;;;;;0.37;0.37;;;29.20;90.60;;;;;;4431316;32;20057;-76
2021/06/29 12:07:35;;;;;;;0.35;0.35;;;29.00;90.50;;;;;;4428047;32;20521;-76
2021/06/29 12:10:03;;;;;;;0.60;0.60;;;28.90;90.30;;;;;;4428689;32;20113;-76
2021/06/29 12:12:29;;;;;;;0.40;0.40;;;28.90;89.70;;;;;;4429933;32;20075;-77
2021/06/29 12:15:14;;;;;;;0.20;0.20;;;29.00;89.70;;;;;;4429613;32;20115;-76
2021/06/29 12:17:58;;;;;;;0.37;0.37;;;29.00;90.30;;;;;;4429784;32;20127;-77
2021/06/29 12:20:27;;;;;;;0.40;0.40;;;29.10;90.10;;;;;;4429835;32;20069;-76
2021/06/29 12:22:53;;;;;;;0.30;0.30;;;29.00;90.10;;;;;;4429562;32;20070;-76
2021/06/29 12:25:29;;;;;;;0.50;0.50;;;28.90;90.80;;;;;;4428823;32;20093;-77
2021/06/29 12:28:01;;;;;;;0.30;0.30;;;28.90;89.70;;;;;;4431200;32;20427;-76
2021/06/29 12:30:31;;;;;;;0.47;0.47;;;28.80;90.30;;;;;;4429323;32;20065;-75
2021/06/29 12:32:59;;;;;;;0.88;0.60;;;28.60;90.60;;;;;;4422161;32;20071;-75
2021/06/29 12:35:29;;;;;;;0.30;0.30;;;28.50;90.80;;;;;;4416720;32;20066;-76
2021/06/29 12:37:59;;;;;;;0.57;0.35;;;28.50;90.90;;;;;;4416748;32;20069;-75
2021/06/29 12:40:27;;;;;;;0.30;0.30;;;28.40;90.40;;;;;;4416251;32;20065;-76
2021/06/29 12:42:53;;;;;;;0.43;0.35;;;28.40;90.80;;;;;;4417133;32;20079;-75
2021/06/29 12:45:19;;;;;;;0.40;0.30;;;28.40;90.70;;;;;;4418252;32;20506;-76
2021/06/29 12:47:45;;;;;;;0.50;0.45;;;28.50;90.80;;;;;;4418750;32;20104;-76
2021/06/29 12:50:11;;;;;;;0.95;0.50;;;28.50;90.80;;;;;;4417084;32;20086;-76